Impacts METAR Board
IDs:

KFLL - Ft Lauderdale-Hollyw, FL, US

Updated at: 2000 UTC 16 Aug 2018
Potential Impact None Slight Moderate High
Time 16/08Z 16/09Z 16/10Z 16/11Z 16/12Z 16/13Z 16/14Z 16/15Z 16/16Z 16/17Z 16/18Z 16/19Z 16/20Z
Temp82 83 84 84 85 86 87 88 89 89 89 89 88
Dewpt77 77 78 78 77 77 78 77 77 74 78 79 77
Altim30.07 30.08 30.09 30.10 30.11 30.12 30.14 30.15 30.15 30.15 30.15 30.14 30.13
VIS10 10 10 10 10 10 10 10 10 10 10 10 10
CIG-- -- -- -- -- -- -- -- -- -- -- 30 --
CoverCLRCLRFEWSCTFEWSCTSCTFEWFEWFEWFEWBKNSCT
FltCatVFRVFRVFRVFRVFRVFRVFRVFRVFRVFRVFRMVFRVFR
WX--------------------------
WDir100120130120130120130130120130100100150
WSpd9 8 7 10 12 12 15 13 12 14 13 11 11
WGst-- -- -- -- -- -- -- 21 -- -- -- 19 --
Raw hourly METARs
KFLL 160753Z 10009KT 10SM CLR 28/25 A3007 RMK AO2 SLP182 T02780250
KFLL 160853Z 12008KT 10SM CLR 28/25 A3008 RMK AO2 SLP184 T02830250 55009
KFLL 160953Z 13007KT 10SM FEW024 29/26 A3009 RMK AO2 SLP189 T02890256
KFLL 161053Z 12010KT 10SM SCT025TCU SCT045 29/26 A3010 RMK AO2 SLP192 TCU N AND E T02890256
KFLL 161153Z 13012KT 10SM FEW025 FEW250 29/25 A3011 RMK AO2 SLP196 70001 T02940250 10294 20278 52012
KFLL 161253Z 12012KT 10SM FEW027 SCT250 30/25 A3012 RMK AO2 SLP200 T03000250
KFLL 161353Z 13015KT 10SM SCT030 SCT250 31/26 A3014 RMK AO2 SLP206 T03060256
KFLL 161453Z 13013G21KT 10SM FEW030 FEW250 31/25 A3015 RMK AO2 SLP210 T03110250 51014
KFLL 161553Z 12012KT 10SM FEW030 32/25 A3015 RMK AO2 SLP207 T03170250
KFLL 161653Z 13014KT 10SM FEW030 32/23 A3015 RMK AO2 SLP209 T03170233
KFLL 161753Z 10013KT 10SM FEW030 32/26 A3015 RMK AO2 SLP207 T03170256 10322 20289 56002
KFLL 161853Z 10011G19KT 10SM BKN030 32/26 A3014 RMK AO2 SLP206 T03170261
KFLL 161953Z 15011KT 10SM SCT032 SCT100 SCT250 31/25 A3013 RMK AO2 SLP202 TCU DSNT NE T03110250



Page loaded:  20:19 UTC  |   01:19 PM Pacific  |   02:19 PM Mountain  |   03:19 PM Central  |   04:19 PM Eastern

 

ADVISORIES

FORECASTS

FORECASTS

OBSERVATIONS

USER TOOLS

ABOUT US